Time;durP1;ratioP1;P1;durP2;ratioP2;P2;SDS_P1;SDS_P2;PMS_P1;PMS_P2;Temp;Humidity;BMP_temperature;BMP_pressure;BME280_temperature;BME280_humidity;BME280_pressure;Samples;Min_cycle;Max_cycle;Signal;HPM_P1;HPM_P2
2022/03/13 00:01:03;;;;;;;34.60;15.48;;;;;;;;;;5043182;28;20028;-76
2022/03/13 00:03:31;;;;;;;39.08;15.52;;;;;;;;;;5049250;28;20023;-75
2022/03/13 00:05:57;;;;;;;35.38;16.00;;;;;;;;;;5053467;28;20063;-74
2022/03/13 00:08:25;;;;;;;31.88;14.52;;;;;;;;;;5052461;28;20025;-74
2022/03/13 00:10:56;;;;;;;33.85;15.95;;;;;;;;;;5053657;28;20021;-73
2022/03/13 00:13:24;;;;;;;33.25;15.90;;;;;;;;;;5017871;28;20029;-74
2022/03/13 00:15:51;;;;;;;35.75;16.13;;;;;;;;;;5033495;28;20075;-74
2022/03/13 00:18:17;;;;;;;39.03;16.60;;;;;;;;;;5034412;28;20493;-75
2022/03/13 00:20:42;;;;;;;32.33;15.25;;;;;;;;;;5035970;28;20042;-75
2022/03/13 00:23:08;;;;;;;38.20;16.67;;;;;;;;;;5035203;28;20031;-75
2022/03/13 00:25:34;;;;;;;39.75;16.38;;;;;;;;;;5031955;28;20021;-75
2022/03/13 00:27:59;;;;;;;33.65;15.85;;;;;;;;;;5032968;28;20466;-75
2022/03/13 00:30:25;;;;;;;38.85;17.40;;;;;;;;;;5033295;28;20466;-75
2022/03/13 00:32:50;;;;;;;39.33;16.77;;;;;;;;;;5034022;28;20062;-75
2022/03/13 00:35:16;;;;;;;38.28;17.20;;;;;;;;;;5034856;28;20037;-75
2022/03/13 00:37:41;;;;;;;42.22;19.80;;;;;;;;;;5033231;28;20012;-75
2022/03/13 00:40:07;;;;;;;42.08;19.35;;;;;;;;;;5032955;28;20033;-75
2022/03/13 00:42:32;;;;;;;45.08;19.35;;;;;;;;;;5033249;28;20018;-75
2022/03/13 00:44:58;;;;;;;37.30;18.10;;;;;;;;;;5033056;28;20116;-75
2022/03/13 00:47:24;;;;;;;45.72;19.30;;;;;;;;;;5031960;28;20104;-76
2022/03/13 00:49:50;;;;;;;42.25;19.05;;;;;;;;;;5032163;28;20021;-76
2022/03/13 00:52:16;;;;;;;40.88;17.85;;;;;;;;;;5033225;28;20032;-75
2022/03/13 00:54:41;;;;;;;40.70;19.25;;;;;;;;;;5033082;28;20430;-75
2022/03/13 00:57:06;;;;;;;42.03;17.85;;;;;;;;;;5032705;28;20079;-76
2022/03/13 00:59:32;;;;;;;38.22;17.70;;;;;;;;;;5031074;28;20042;-75
2022/03/13 01:01:57;;;;;;;44.30;18.48;;;;;;;;;;5032269;28;20470;-74
2022/03/13 01:04:23;;;;;;;45.42;18.88;;;;;;;;;;5031137;28;20053;-73
2022/03/13 01:06:48;;;;;;;45.97;17.60;;;;;;;;;;5031919;28;20041;-76
2022/03/13 01:09:13;;;;;;;44.45;19.17;;;;;;;;;;5032904;28;20084;-78
2022/03/13 01:11:39;;;;;;;40.05;18.45;;;;;;;;;;5032852;28;20478;-74
2022/03/13 01:14:05;;;;;;;34.80;17.15;;;;;;;;;;5031854;28;20061;-75
2022/03/13 01:16:34;;;;;;;37.00;17.15;;;;;;;;;;5032894;28;20065;-75
2022/03/13 01:18:59;;;;;;;44.92;18.67;;;;;;;;;;5033159;28;20490;-74
2022/03/13 01:21:25;;;;;;;35.03;17.20;;;;;;;;;;5033992;28;20044;-75
2022/03/13 01:24:02;;;;;;;40.17;18.00;;;;;;;;;;5032465;28;20025;-74
2022/03/13 01:26:28;;;;;;;38.35;17.83;;;;;;;;;;5045387;28;20028;-75
2022/03/13 01:28:57;;;;;;;35.38;17.70;;;;;;;;;;5053053;28;20025;-78
2022/03/13 01:31:26;;;;;;;41.38;16.73;;;;;;;;;;5053737;28;20040;-76
2022/03/13 01:33:52;;;;;;;32.92;15.95;;;;;;;;;;5052055;28;20440;-76
2022/03/13 01:36:17;;;;;;;37.35;16.90;;;;;;;;;;5051946;28;20013;-75
2022/03/13 01:38:42;;;;;;;38.70;17.83;;;;;;;;;;5051667;28;20020;-75
2022/03/13 01:41:08;;;;;;;39.92;17.00;;;;;;;;;;5051364;28;20544;-76
2022/03/13 01:43:33;;;;;;;40.05;15.98;;;;;;;;;;5051113;28;20017;-76
2022/03/13 01:45:59;;;;;;;38.55;17.05;;;;;;;;;;5052090;28;20478;-75
2022/03/13 01:48:24;;;;;;;42.53;18.25;;;;;;;;;;5050118;28;20016;-76
2022/03/13 01:50:50;;;;;;;36.45;16.00;;;;;;;;;;5051028;28;20784;-75
2022/03/13 01:53:15;;;;;;;39.03;16.45;;;;;;;;;;5051636;28;20075;-75
2022/03/13 01:55:40;;;;;;;38.28;15.68;;;;;;;;;;5051356;28;20033;-75
2022/03/13 01:58:06;;;;;;;38.15;17.85;;;;;;;;;;5051546;28;20013;-75
2022/03/13 02:00:32;;;;;;;37.30;16.50;;;;;;;;;;5051748;28;20056;-76
2022/03/13 02:02:57;;;;;;;40.10;16.80;;;;;;;;;;5052831;28;20017;-76
2022/03/13 02:05:28;;;;;;;37.35;17.60;;;;;;;;;;5050170;28;20375;-75
2022/03/13 02:07:53;;;;;;;39.55;17.00;;;;;;;;;;5051223;28;20430;-75
2022/03/13 02:10:19;;;;;;;40.67;17.15;;;;;;;;;;5050849;28;20116;-75
2022/03/13 02:12:44;;;;;;;43.65;17.98;;;;;;;;;;5051438;28;20009;-74
2022/03/13 02:15:09;;;;;;;37.67;18.10;;;;;;;;;;5050824;28;20075;-74
2022/03/13 02:17:35;;;;;;;35.42;16.35;;;;;;;;;;5051210;28;20020;-74
2022/03/13 02:20:00;;;;;;;38.25;17.60;;;;;;;;;;5051448;28;20028;-74
2022/03/13 02:22:26;;;;;;;38.90;17.10;;;;;;;;;;5051385;28;20025;-77
2022/03/13 02:24:51;;;;;;;40.63;18.02;;;;;;;;;;5051903;28;20021;-75
2022/03/13 02:27:21;;;;;;;40.08;16.73;;;;;;;;;;5051113;28;20418;-75
2022/03/13 02:29:46;;;;;;;36.83;16.95;;;;;;;;;;5050909;28;20028;-75
2022/03/13 02:32:11;;;;;;;37.58;18.00;;;;;;;;;;5050938;28;20021;-75
2022/03/13 02:34:37;;;;;;;39.70;16.45;;;;;;;;;;5050995;28;20466;-75
2022/03/13 02:37:02;;;;;;;43.60;18.10;;;;;;;;;;5050991;28;20027;-74
2022/03/13 02:39:28;;;;;;;35.63;17.10;;;;;;;;;;5050625;28;20058;-75
2022/03/13 02:41:54;;;;;;;38.28;17.67;;;;;;;;;;5049421;28;20024;-76
2022/03/13 02:44:19;;;;;;;47.40;18.95;;;;;;;;;;5050717;28;20017;-75
2022/03/13 02:46:47;;;;;;;41.75;16.95;;;;;;;;;;5049580;28;20017;-75
2022/03/13 02:49:14;;;;;;;39.50;18.63;;;;;;;;;;5051529;28;20025;-75
2022/03/13 02:51:41;;;;;;;47.03;20.33;;;;;;;;;;5051011;28;20041;-76
2022/03/13 02:54:07;;;;;;;42.40;18.75;;;;;;;;;;5049402;28;20505;-75
2022/03/13 02:56:32;;;;;;;49.72;20.00;;;;;;;;;;5048420;28;20025;-76
2022/03/13 02:58:57;;;;;;;41.38;20.15;;;;;;;;;;5049824;28;20132;-76
2022/03/13 03:01:24;;;;;;;47.75;18.85;;;;;;;;;;5049774;28;20075;-75
2022/03/13 03:03:50;;;;;;;40.00;18.25;;;;;;;;;;5050062;28;20025;-76
2022/03/13 03:06:15;;;;;;;36.78;16.05;;;;;;;;;;5049715;28;20021;-75
2022/03/13 03:08:40;;;;;;;39.95;17.00;;;;;;;;;;5048773;28;20020;-75
2022/03/13 03:11:06;;;;;;;42.70;16.50;;;;;;;;;;5050216;28;20119;-75
2022/03/13 03:13:32;;;;;;;42.13;17.80;;;;;;;;;;5050443;28;20110;-74
2022/03/13 03:15:57;;;;;;;38.45;16.77;;;;;;;;;;5049126;28;20060;-75
2022/03/13 03:18:23;;;;;;;43.70;16.08;;;;;;;;;;5050543;28;20027;-75
2022/03/13 03:20:48;;;;;;;37.55;16.08;;;;;;;;;;5049839;28;20059;-75
2022/03/13 03:23:13;;;;;;;46.58;16.88;;;;;;;;;;5050325;28;20355;-75
2022/03/13 03:25:41;;;;;;;36.85;15.60;;;;;;;;;;5049005;28;20498;-75
2022/03/13 03:28:07;;;;;;;39.28;16.92;;;;;;;;;;5050469;28;20013;-75
2022/03/13 03:30:33;;;;;;;32.85;16.15;;;;;;;;;;5049054;28;20497;-75
2022/03/13 03:33:02;;;;;;;39.97;17.52;;;;;;;;;;5050240;28;20070;-75
2022/03/13 03:35:27;;;;;;;44.75;17.33;;;;;;;;;;5050191;28;20052;-75
2022/03/13 03:37:54;;;;;;;36.28;16.80;;;;;;;;;;5050245;28;20059;-75
2022/03/13 03:40:23;;;;;;;38.95;15.50;;;;;;;;;;5050269;28;20025;-75
2022/03/13 03:42:48;;;;;;;35.60;16.45;;;;;;;;;;5050270;28;20070;-75
2022/03/13 03:45:16;;;;;;;39.75;16.02;;;;;;;;;;5050491;28;20472;-74
2022/03/13 03:47:42;;;;;;;39.80;16.48;;;;;;;;;;5048873;28;20374;-75
2022/03/13 03:50:07;;;;;;;38.90;16.77;;;;;;;;;;5048833;28;20027;-75
2022/03/13 03:52:32;;;;;;;40.35;17.13;;;;;;;;;;5050339;28;20028;-75
2022/03/13 03:54:58;;;;;;;39.42;17.42;;;;;;;;;;5048747;28;20548;-75
2022/03/13 03:57:23;;;;;;;36.92;17.25;;;;;;;;;;5048852;28;20056;-75
2022/03/13 03:59:48;;;;;;;41.28;17.75;;;;;;;;;;5049905;28;20403;-75
2022/03/13 04:02:13;;;;;;;42.92;18.20;;;;;;;;;;5049733;28;20037;-76
2022/03/13 04:04:39;;;;;;;48.13;20.25;;;;;;;;;;5053970;28;20075;-75
2022/03/13 04:07:04;;;;;;;40.88;17.75;;;;;;;;;;5052870;28;20486;-75
2022/03/13 04:09:29;;;;;;;39.88;17.13;;;;;;;;;;5054756;28;20055;-76
2022/03/13 04:11:54;;;;;;;42.95;18.23;;;;;;;;;;5053658;28;20063;-76
2022/03/13 04:14:21;;;;;;;39.72;16.92;;;;;;;;;;5055451;28;20071;-76
2022/03/13 04:16:47;;;;;;;48.83;19.45;;;;;;;;;;5055788;28;20079;-75
2022/03/13 04:19:12;;;;;;;40.83;17.92;;;;;;;;;;5053437;28;20041;-74
2022/03/13 04:21:42;;;;;;;53.65;19.40;;;;;;;;;;5053984;28;20051;-75
2022/03/13 04:24:07;;;;;;;38.05;17.85;;;;;;;;;;5053384;28;20021;-75
2022/03/13 04:26:33;;;;;;;46.17;18.15;;;;;;;;;;5053432;28;20112;-75
2022/03/13 04:29:00;;;;;;;41.13;16.65;;;;;;;;;;5052038;28;20029;-75
2022/03/13 04:31:25;;;;;;;38.25;17.00;;;;;;;;;;5053295;28;20017;-74
2022/03/13 04:33:50;;;;;;;38.45;16.88;;;;;;;;;;5053114;28;20474;-74
2022/03/13 04:36:22;;;;;;;33.70;15.75;;;;;;;;;;5052953;28;20017;-75
2022/03/13 04:38:47;;;;;;;38.17;16.58;;;;;;;;;;5053213;28;20028;-74
2022/03/13 04:41:13;;;;;;;36.65;16.33;;;;;;;;;;5053196;28;20078;-74
2022/03/13 04:43:38;;;;;;;34.17;15.50;;;;;;;;;;5053064;28;20404;-74
2022/03/13 04:46:04;;;;;;;38.90;17.45;;;;;;;;;;5052904;28;20021;-75
2022/03/13 04:48:32;;;;;;;39.25;16.25;;;;;;;;;;5052984;28;20017;-75
2022/03/13 04:50:57;;;;;;;37.42;16.00;;;;;;;;;;5053212;28;20056;-74
2022/03/13 04:53:23;;;;;;;33.20;15.63;;;;;;;;;;5051617;28;20478;-74
2022/03/13 04:55:48;;;;;;;37.05;15.98;;;;;;;;;;5052637;28;20024;-74
2022/03/13 04:58:14;;;;;;;34.67;14.80;;;;;;;;;;5052399;28;20158;-74
2022/03/13 05:00:40;;;;;;;38.28;16.63;;;;;;;;;;5051148;28;20049;-75
2022/03/13 05:03:06;;;;;;;50.08;18.27;;;;;;;;;;5052371;28;20366;-75
2022/03/13 05:05:34;;;;;;;35.17;15.75;;;;;;;;;;5051206;28;20048;-75
2022/03/13 05:07:59;;;;;;;45.38;16.77;;;;;;;;;;5052640;28;20017;-74
2022/03/13 05:10:35;;;;;;;36.90;16.83;;;;;;;;;;5051077;28;20559;-74
2022/03/13 05:13:00;;;;;;;40.83;17.35;;;;;;;;;;5052564;28;20017;-75
2022/03/13 05:15:26;;;;;;;35.58;17.25;;;;;;;;;;5052289;28;20021;-75
2022/03/13 05:17:51;;;;;;;43.20;17.50;;;;;;;;;;5051532;28;20486;-75
2022/03/13 05:20:17;;;;;;;35.95;17.15;;;;;;;;;;5052820;28;20456;-75
2022/03/13 05:22:42;;;;;;;40.53;16.98;;;;;;;;;;5052953;28;20501;-74
2022/03/13 05:25:07;;;;;;;60.33;26.90;;;;;;;;;;5052114;28;20091;-75
2022/03/13 05:27:32;;;;;;;38.00;16.38;;;;;;;;;;5051025;28;20028;-74
2022/03/13 05:29:58;;;;;;;42.90;16.30;;;;;;;;;;5050760;28;20017;-74
2022/03/13 05:32:23;;;;;;;37.35;16.23;;;;;;;;;;5042763;28;20112;-75
2022/03/13 05:34:48;;;;;;;41.53;17.70;;;;;;;;;;5044363;28;20021;-74
2022/03/13 05:37:13;;;;;;;36.15;16.98;;;;;;;;;;5050406;28;20021;-75
2022/03/13 05:39:39;;;;;;;36.70;17.73;;;;;;;;;;5030842;28;20116;-74
2022/03/13 05:42:05;;;;;;;43.42;17.77;;;;;;;;;;5063651;28;20143;-74
2022/03/13 05:44:31;;;;;;;42.13;18.20;;;;;;;;;;5031363;28;20014;-75
2022/03/13 05:46:56;;;;;;;46.50;18.35;;;;;;;;;;5031473;28;20022;-75
2022/03/13 05:49:22;;;;;;;38.28;17.38;;;;;;;;;;5031160;28;20028;-74
2022/03/13 05:51:47;;;;;;;37.22;17.20;;;;;;;;;;5049747;28;20565;-74
2022/03/13 05:54:13;;;;;;;33.30;16.25;;;;;;;;;;5050152;28;20025;-74
2022/03/13 05:56:38;;;;;;;37.40;16.83;;;;;;;;;;5051062;28;20088;-71
2022/03/13 05:59:03;;;;;;;38.13;17.02;;;;;;;;;;5050890;28;20528;-71
2022/03/13 06:01:28;;;;;;;33.72;17.48;;;;;;;;;;5051016;28;20075;-71
2022/03/13 06:03:54;;;;;;;38.42;17.73;;;;;;;;;;5050878;28;20033;-71
2022/03/13 06:06:20;;;;;;;31.95;16.10;;;;;;;;;;5051146;28;20075;-72
2022/03/13 06:08:45;;;;;;;43.17;18.42;;;;;;;;;;5051369;28;20062;-71
2022/03/13 06:11:11;;;;;;;38.42;17.40;;;;;;;;;;5051084;28;20024;-72
2022/03/13 06:13:36;;;;;;;37.22;16.83;;;;;;;;;;5051803;28;20017;-72
2022/03/13 06:16:01;;;;;;;32.67;16.73;;;;;;;;;;5051129;28;20060;-71
2022/03/13 06:18:27;;;;;;;30.48;15.60;;;;;;;;;;5049494;28;20031;-71
2022/03/13 06:20:52;;;;;;;46.50;18.52;;;;;;;;;;5050767;28;20043;-71
2022/03/13 06:23:18;;;;;;;38.42;17.55;;;;;;;;;;5051193;28;20020;-71
2022/03/13 06:25:43;;;;;;;39.55;17.30;;;;;;;;;;5050567;28;20035;-74
2022/03/13 06:28:09;;;;;;;36.88;17.30;;;;;;;;;;5034399;28;20032;-75
2022/03/13 06:30:34;;;;;;;35.75;17.55;;;;;;;;;;5031409;28;20363;-74
2022/03/13 06:32:59;;;;;;;38.42;18.08;;;;;;;;;;5030597;28;20148;-73
2022/03/13 06:35:25;;;;;;;33.30;16.98;;;;;;;;;;5030592;28;20374;-73
2022/03/13 06:37:52;;;;;;;35.45;17.52;;;;;;;;;;5030290;28;20100;-74
2022/03/13 06:40:18;;;;;;;73.97;32.42;;;;;;;;;;5030394;28;20084;-74
2022/03/13 06:42:43;;;;;;;42.55;20.02;;;;;;;;;;5030694;28;20041;-75
2022/03/13 06:45:10;;;;;;;36.83;17.67;;;;;;;;;;5030557;28;20068;-75
2022/03/13 06:47:36;;;;;;;37.47;17.55;;;;;;;;;;5030213;28;20043;-74
2022/03/13 06:50:01;;;;;;;35.53;16.58;;;;;;;;;;5030318;28;20026;-74
2022/03/13 06:52:26;;;;;;;107.75;46.55;;;;;;;;;;5029409;28;20031;-74
2022/03/13 06:54:52;;;;;;;51.53;23.75;;;;;;;;;;5030239;28;20052;-73
2022/03/13 06:57:18;;;;;;;33.97;16.92;;;;;;;;;;5030470;28;20033;-74
2022/03/13 06:59:44;;;;;;;35.45;16.90;;;;;;;;;;5030048;28;20494;-73
2022/03/13 07:02:13;;;;;;;48.20;18.15;;;;;;;;;;5045288;28;20040;-74
2022/03/13 07:04:38;;;;;;;38.00;18.33;;;;;;;;;;5048978;28;20032;-74
2022/03/13 07:07:04;;;;;;;40.95;18.08;;;;;;;;;;5050112;28;20017;-75
2022/03/13 07:09:29;;;;;;;32.25;16.98;;;;;;;;;;5050076;28;20001;-73
2022/03/13 07:11:54;;;;;;;39.78;19.52;;;;;;;;;;5051306;28;20013;-79
2022/03/13 07:14:21;;;;;;;38.90;17.33;;;;;;;;;;5051816;28;20056;-76
2022/03/13 07:16:47;;;;;;;39.40;18.13;;;;;;;;;;5045893;28;20036;-76
2022/03/13 07:19:12;;;;;;;37.25;16.48;;;;;;;;;;5046192;28;20022;-79
2022/03/13 07:21:38;;;;;;;31.38;17.05;;;;;;;;;;5043002;28;20086;-74
2022/03/13 07:24:03;;;;;;;32.95;16.58;;;;;;;;;;5046290;28;20100;-75
2022/03/13 07:26:29;;;;;;;34.15;17.63;;;;;;;;;;5051251;28;20025;-76
2022/03/13 07:28:54;;;;;;;35.03;16.33;;;;;;;;;;5054120;28;20021;-73
2022/03/13 07:31:20;;;;;;;42.63;16.92;;;;;;;;;;5047576;28;20017;-75
2022/03/13 07:33:45;;;;;;;36.25;17.27;;;;;;;;;;5048700;28;20017;-75
2022/03/13 07:36:11;;;;;;;36.38;17.73;;;;;;;;;;5048638;28;20025;-74
2022/03/13 07:38:36;;;;;;;34.60;17.45;;;;;;;;;;5052958;28;20166;-75
2022/03/13 07:41:01;;;;;;;32.88;18.58;;;;;;;;;;5052887;28;20025;-73
2022/03/13 07:43:27;;;;;;;34.85;17.83;;;;;;;;;;5053360;28;20020;-74
2022/03/13 07:45:52;;;;;;;31.85;17.42;;;;;;;;;;5052447;28;20108;-75
2022/03/13 07:48:17;;;;;;;33.97;17.67;;;;;;;;;;5034946;28;20022;-74
2022/03/13 07:50:43;;;;;;;27.13;16.48;;;;;;;;;;5052475;28;20265;-74
2022/03/13 07:53:08;;;;;;;31.05;18.23;;;;;;;;;;5053563;28;20013;-74
2022/03/13 07:55:33;;;;;;;32.35;16.75;;;;;;;;;;5053056;28;20029;-75
2022/03/13 07:57:59;;;;;;;31.83;16.48;;;;;;;;;;5047305;28;20071;-74
2022/03/13 08:00:24;;;;;;;29.88;16.92;;;;;;;;;;5047527;28;20473;-76
2022/03/13 08:02:53;;;;;;;27.15;17.55;;;;;;;;;;5049210;28;20017;-74
2022/03/13 08:05:19;;;;;;;33.88;18.15;;;;;;;;;;5042486;28;20041;-74
2022/03/13 08:07:45;;;;;;;28.48;18.50;;;;;;;;;;5049877;28;20427;-86
2022/03/13 08:10:10;;;;;;;32.28;18.25;;;;;;;;;;5048979;28;20018;-76
2022/03/13 08:12:38;;;;;;;34.03;17.92;;;;;;;;;;5052018;28;20020;-75
2022/03/13 08:15:03;;;;;;;33.17;18.50;;;;;;;;;;5051699;28;20040;-75
2022/03/13 08:17:28;;;;;;;31.70;19.10;;;;;;;;;;5045885;28;20425;-75
2022/03/13 08:19:56;;;;;;;32.70;17.73;;;;;;;;;;5050070;28;20119;-76
2022/03/13 08:22:22;;;;;;;36.28;19.35;;;;;;;;;;5052233;28;20017;-74
2022/03/13 08:24:47;;;;;;;26.50;17.27;;;;;;;;;;5050701;28;20050;-75
2022/03/13 08:27:12;;;;;;;32.23;18.73;;;;;;;;;;5052580;28;20013;-75
2022/03/13 08:29:37;;;;;;;29.90;17.63;;;;;;;;;;5050888;28;20257;-74
2022/03/13 08:32:03;;;;;;;31.25;18.98;;;;;;;;;;5052765;28;20116;-74
2022/03/13 08:34:30;;;;;;;33.63;18.55;;;;;;;;;;5052127;28;20111;-74
2022/03/13 08:36:57;;;;;;;32.05;18.30;;;;;;;;;;5052576;28;20013;-75
2022/03/13 08:39:22;;;;;;;26.58;18.40;;;;;;;;;;5057453;28;20048;-77
2022/03/13 08:41:48;;;;;;;31.63;19.42;;;;;;;;;;5055828;28;20029;-74
2022/03/13 08:44:13;;;;;;;30.90;19.93;;;;;;;;;;5051644;28;20117;-79
2022/03/13 08:46:39;;;;;;;29.25;18.35;;;;;;;;;;5046525;28;20262;-74
2022/03/13 08:49:04;;;;;;;32.35;18.27;;;;;;;;;;5063555;28;20078;-75
2022/03/13 08:51:30;;;;;;;32.25;19.42;;;;;;;;;;5064485;28;20025;-73
2022/03/13 08:53:56;;;;;;;31.55;17.35;;;;;;;;;;5033538;28;20471;-71
2022/03/13 08:56:21;;;;;;;32.70;18.52;;;;;;;;;;5032278;28;20027;-72
2022/03/13 08:58:47;;;;;;;31.17;18.92;;;;;;;;;;5030635;28;20021;-73
2022/03/13 09:01:14;;;;;;;27.85;17.73;;;;;;;;;;5064123;28;20037;-72
2022/03/13 09:03:39;;;;;;;31.23;17.55;;;;;;;;;;5043542;28;20028;-71
2022/03/13 09:06:04;;;;;;;27.73;17.27;;;;;;;;;;5052072;28;20025;-72
2022/03/13 09:08:30;;;;;;;28.55;17.35;;;;;;;;;;5052146;28;20270;-72
2022/03/13 09:10:55;;;;;;;33.63;17.83;;;;;;;;;;5051694;28;20068;-73
2022/03/13 09:13:21;;;;;;;30.60;18.52;;;;;;;;;;5050362;28;20079;-74
2022/03/13 09:15:47;;;;;;;29.25;17.02;;;;;;;;;;5052013;28;20029;-72
2022/03/13 09:18:13;;;;;;;31.55;16.27;;;;;;;;;;5051953;28;20452;-72
2022/03/13 09:20:38;;;;;;;25.95;16.80;;;;;;;;;;5051923;28;20033;-73
2022/03/13 09:23:03;;;;;;;28.35;16.73;;;;;;;;;;5052084;28;20031;-72
2022/03/13 09:25:31;;;;;;;28.63;17.35;;;;;;;;;;5051389;28;20024;-72
2022/03/13 09:27:56;;;;;;;25.20;16.23;;;;;;;;;;5043776;28;20017;-71
2022/03/13 09:30:21;;;;;;;27.60;15.70;;;;;;;;;;5054674;28;20032;-72
2022/03/13 09:32:46;;;;;;;29.37;16.10;;;;;;;;;;5070718;28;20016;-74
2022/03/13 09:35:12;;;;;;;29.30;16.05;;;;;;;;;;5061628;28;21145;-75
2022/03/13 09:37:40;;;;;;;24.60;15.53;;;;;;;;;;5057118;28;20060;-75
2022/03/13 09:40:07;;;;;;;24.63;15.68;;;;;;;;;;5052513;28;20304;-75
2022/03/13 09:42:32;;;;;;;24.27;15.88;;;;;;;;;;5049890;28;20107;-76
2022/03/13 09:44:59;;;;;;;24.88;15.10;;;;;;;;;;5057841;28;20108;-75
2022/03/13 09:47:25;;;;;;;24.92;15.70;;;;;;;;;;5064377;28;20464;-75
2022/03/13 09:49:51;;;;;;;34.28;14.90;;;;;;;;;;5055000;28;20066;-75
2022/03/13 09:52:16;;;;;;;24.13;16.05;;;;;;;;;;5067687;28;20025;-75
2022/03/13 09:54:41;;;;;;;23.88;15.25;;;;;;;;;;5055856;28;20051;-74
2022/03/13 09:57:07;;;;;;;22.47;14.60;;;;;;;;;;5059159;28;20025;-74
2022/03/13 09:59:33;;;;;;;22.00;14.02;;;;;;;;;;5063588;28;21093;-74
2022/03/13 10:01:58;;;;;;;23.90;15.10;;;;;;;;;;5035475;28;20037;-74
2022/03/13 10:04:23;;;;;;;27.17;14.80;;;;;;;;;;5067772;28;20376;-76
2022/03/13 10:07:01;;;;;;;22.80;13.88;;;;;;;;;;5064383;28;20261;-74
2022/03/13 10:09:27;;;;;;;19.45;13.70;;;;;;;;;;5058812;28;20028;-74
2022/03/13 10:12:08;;;;;;;23.80;13.75;;;;;;;;;;5066389;28;20052;-73
2022/03/13 10:14:34;;;;;;;20.88;12.70;;;;;;;;;;5044578;28;20438;-74
2022/03/13 10:17:00;;;;;;;18.95;13.30;;;;;;;;;;5064141;28;20067;-74
2022/03/13 10:19:27;;;;;;;21.77;11.98;;;;;;;;;;5050374;28;20025;-74
2022/03/13 10:22:07;;;;;;;19.27;11.55;;;;;;;;;;5063059;28;20430;-74
2022/03/13 10:24:43;;;;;;;19.98;10.90;;;;;;;;;;5039677;28;20054;-74
2022/03/13 10:27:09;;;;;;;35.03;23.63;;;;;;;;;;5059675;28;20420;-75
2022/03/13 10:29:35;;;;;;;13.88;9.80;;;;;;;;;;5062088;28;20028;-74
2022/03/13 10:32:00;;;;;;;15.65;10.85;;;;;;;;;;5053437;28;20466;-75
2022/03/13 10:34:26;;;;;;;13.93;7.25;;;;;;;;;;5066046;28;20112;-74
2022/03/13 10:36:52;;;;;;;9.63;6.30;;;;;;;;;;5056275;28;20066;-74
2022/03/13 10:39:17;;;;;;;7.10;4.78;;;;;;;;;;5058702;28;20473;-73
2022/03/13 10:41:44;;;;;;;7.30;4.60;;;;;;;;;;5065274;28;20035;-73
2022/03/13 10:44:13;;;;;;;6.75;4.13;;;;;;;;;;5054140;28;20017;-74
2022/03/13 10:46:42;;;;;;;8.48;4.18;;;;;;;;;;5060818;28;20370;-74
2022/03/13 10:49:08;;;;;;;8.13;3.80;;;;;;;;;;5052074;28;20028;-74
2022/03/13 10:51:39;;;;;;;7.95;4.15;;;;;;;;;;5068509;28;20512;-74
2022/03/13 10:54:05;;;;;;;7.75;4.40;;;;;;;;;;5053861;28;20423;-75
2022/03/13 10:56:30;;;;;;;8.38;3.80;;;;;;;;;;5065483;28;20106;-73
2022/03/13 10:58:57;;;;;;;6.68;3.97;;;;;;;;;;5056155;28;20481;-74
2022/03/13 11:01:25;;;;;;;5.90;3.83;;;;;;;;;;5057564;28;20047;-73
2022/03/13 11:04:02;;;;;;;10.30;3.65;;;;;;;;;;5056417;28;20041;-74
2022/03/13 11:06:27;;;;;;;6.45;4.20;;;;;;;;;;5041766;28;20025;-74
2022/03/13 11:08:55;;;;;;;11.35;4.13;;;;;;;;;;5062071;28;20021;-74
2022/03/13 11:11:21;;;;;;;11.38;4.28;;;;;;;;;;5060769;28;20077;-73
2022/03/13 11:13:52;;;;;;;11.40;3.95;;;;;;;;;;5051517;28;20025;-73
2022/03/13 11:16:21;;;;;;;9.43;4.30;;;;;;;;;;5035985;28;20050;-74
2022/03/13 11:18:48;;;;;;;10.45;4.40;;;;;;;;;;5062663;28;20557;-75
2022/03/13 11:21:13;;;;;;;8.70;4.25;;;;;;;;;;5057415;28;20037;-74
2022/03/13 11:23:39;;;;;;;15.55;4.43;;;;;;;;;;5052119;28;20070;-73
2022/03/13 11:26:05;;;;;;;9.80;3.70;;;;;;;;;;5065348;28;20465;-73
2022/03/13 11:28:31;;;;;;;7.43;3.88;;;;;;;;;;5054369;28;20020;-73
2022/03/13 11:30:57;;;;;;;9.00;3.83;;;;;;;;;;5061617;28;20020;-73
2022/03/13 11:33:32;;;;;;;10.90;4.20;;;;;;;;;;5059973;28;20025;-73
2022/03/13 11:36:28;;;;;;;6.07;3.75;;;;;;;;;;5053477;28;20025;-73
2022/03/13 11:38:54;;;;;;;6.72;3.35;;;;;;;;;;5053229;28;20041;-73
2022/03/13 11:41:32;;;;;;;9.93;4.10;;;;;;;;;;5060778;28;20036;-73
2022/03/13 11:44:01;;;;;;;8.10;3.45;;;;;;;;;;5053197;28;20048;-73
2022/03/13 11:46:40;;;;;;;10.52;4.03;;;;;;;;;;5054272;28;20112;-74
2022/03/13 11:49:41;;;;;;;7.80;3.42;;;;;;;;;;5058350;28;20017;-74
2022/03/13 11:52:09;;;;;;;7.82;3.38;;;;;;;;;;5007426;28;20030;-73
2022/03/13 11:54:47;;;;;;;6.35;3.40;;;;;;;;;;5046533;28;20028;-73
2022/03/13 11:57:13;;;;;;;10.68;3.42;;;;;;;;;;5057444;28;20056;-74
2022/03/13 11:59:38;;;;;;;5.47;3.30;;;;;;;;;;5062848;28;20532;-73
2022/03/13 12:02:03;;;;;;;8.77;3.75;;;;;;;;;;5052481;28;20068;-74
2022/03/13 12:04:29;;;;;;;5.95;3.40;;;;;;;;;;5064800;28;20427;-74
2022/03/13 12:06:56;;;;;;;7.55;3.95;;;;;;;;;;5057436;28;20103;-73
2022/03/13 12:09:33;;;;;;;8.43;3.15;;;;;;;;;;5057365;28;20024;-75
2022/03/13 12:11:58;;;;;;;7.28;3.08;;;;;;;;;;5064323;28;20036;-73
2022/03/13 12:14:43;;;;;;;7.13;3.38;;;;;;;;;;5052505;28;20012;-74
2022/03/13 12:17:10;;;;;;;6.57;3.35;;;;;;;;;;5065563;28;20463;-74
2022/03/13 12:19:39;;;;;;;5.25;2.95;;;;;;;;;;5061383;28;20067;-73
2022/03/13 12:22:05;;;;;;;6.22;3.63;;;;;;;;;;5050148;28;20382;-73
2022/03/13 12:24:32;;;;;;;7.57;3.05;;;;;;;;;;5056166;28;20019;-73
2022/03/13 12:27:00;;;;;;;5.78;3.50;;;;;;;;;;5064783;28;20489;-74
2022/03/13 12:29:28;;;;;;;7.30;3.30;;;;;;;;;;5052260;28;20035;-75
2022/03/13 12:31:54;;;;;;;6.45;3.53;;;;;;;;;;5059902;28;20023;-73
2022/03/13 12:34:26;;;;;;;8.10;3.40;;;;;;;;;;5057305;28;20031;-74
2022/03/13 12:36:53;;;;;;;7.38;3.08;;;;;;;;;;5055846;28;20017;-75
2022/03/13 12:39:19;;;;;;;5.18;2.75;;;;;;;;;;5063083;28;20021;-74
2022/03/13 12:41:44;;;;;;;5.00;2.85;;;;;;;;;;5061512;28;20040;-74
2022/03/13 12:44:13;;;;;;;5.45;2.83;;;;;;;;;;5059933;28;20090;-75
2022/03/13 12:46:40;;;;;;;6.35;2.85;;;;;;;;;;5056962;28;20497;-75
2022/03/13 12:49:06;;;;;;;7.00;2.67;;;;;;;;;;5057681;28;20013;-76
2022/03/13 12:51:47;;;;;;;6.20;2.80;;;;;;;;;;5061086;28;20074;-75
2022/03/13 12:54:22;;;;;;;5.47;3.10;;;;;;;;;;5055857;28;20132;-75
2022/03/13 12:56:51;;;;;;;5.65;2.95;;;;;;;;;;5058897;28;20060;-74
2022/03/13 12:59:22;;;;;;;6.75;2.90;;;;;;;;;;5060126;28;20049;-75
2022/03/13 13:02:06;;;;;;;6.97;3.58;;;;;;;;;;5067288;28;20032;-75
2022/03/13 13:04:37;;;;;;;6.03;3.05;;;;;;;;;;5050648;28;20017;-75
2022/03/13 13:07:04;;;;;;;5.13;2.78;;;;;;;;;;5067189;28;20029;-75
2022/03/13 13:09:33;;;;;;;6.63;2.92;;;;;;;;;;5058891;28;20124;-74
2022/03/13 13:11:58;;;;;;;5.30;2.60;;;;;;;;;;5064849;28;20024;-73
2022/03/13 13:14:24;;;;;;;4.53;2.70;;;;;;;;;;5060731;28;20012;-74
2022/03/13 13:16:50;;;;;;;8.93;3.13;;;;;;;;;;5063219;28;20039;-75
2022/03/13 13:19:16;;;;;;;8.13;3.17;;;;;;;;;;5062314;28;20013;-75
2022/03/13 13:21:42;;;;;;;18.35;3.35;;;;;;;;;;5055481;28;20024;-74
2022/03/13 13:24:21;;;;;;;10.20;3.00;;;;;;;;;;5052939;28;20432;-75
2022/03/13 13:26:47;;;;;;;5.20;3.05;;;;;;;;;;5066337;28;20488;-75
2022/03/13 13:29:12;;;;;;;6.45;3.17;;;;;;;;;;5050158;28;20040;-75
2022/03/13 13:31:38;;;;;;;5.72;2.78;;;;;;;;;;5042135;28;20079;-76
2022/03/13 13:34:16;;;;;;;5.78;2.88;;;;;;;;;;5047347;28;20024;-75
2022/03/13 13:36:41;;;;;;;6.28;2.60;;;;;;;;;;5050101;28;20112;-74
2022/03/13 13:39:07;;;;;;;5.30;3.00;;;;;;;;;;5053005;28;20101;-74
2022/03/13 13:41:34;;;;;;;5.53;3.08;;;;;;;;;;5052887;28;20371;-74
2022/03/13 13:43:59;;;;;;;6.22;2.92;;;;;;;;;;5067644;28;20021;-73
2022/03/13 13:46:33;;;;;;;14.32;3.47;;;;;;;;;;5054866;28;20024;-76
2022/03/13 13:48:59;;;;;;;5.60;2.83;;;;;;;;;;5061364;28;20104;-76
2022/03/13 13:51:27;;;;;;;5.75;2.35;;;;;;;;;;5051367;28;20397;-75
2022/03/13 13:53:59;;;;;;;4.68;2.55;;;;;;;;;;5067470;28;20013;-74
2022/03/13 13:56:27;;;;;;;8.93;2.72;;;;;;;;;;5039456;28;20610;-74
2022/03/13 13:58:53;;;;;;;7.28;2.80;;;;;;;;;;5062904;28;20111;-74
2022/03/13 14:01:24;;;;;;;7.05;2.90;;;;;;;;;;5061822;28;20036;-75
2022/03/13 14:03:51;;;;;;;6.72;2.70;;;;;;;;;;5054773;28;20021;-75
2022/03/13 14:06:18;;;;;;;8.85;4.60;;;;;;;;;;5067368;28;20032;-73
2022/03/13 14:08:44;;;;;;;6.97;2.95;;;;;;;;;;5048326;28;20029;-75
2022/03/13 14:11:10;;;;;;;6.15;3.03;;;;;;;;;;5049006;28;20025;-73
2022/03/13 14:13:35;;;;;;;7.45;3.03;;;;;;;;;;5050555;28;20020;-74
2022/03/13 14:16:00;;;;;;;7.22;2.70;;;;;;;;;;5049859;28;20024;-74
2022/03/13 14:18:26;;;;;;;3.70;2.20;;;;;;;;;;5050493;28;20044;-74
2022/03/13 14:20:51;;;;;;;8.15;3.25;;;;;;;;;;5050899;28;20040;-79